Time;durP1;ratioP1;P1;durP2;ratioP2;P2;SDS_P1;SDS_P2;PMS_P1;PMS_P2;Temp;Humidity;BMP_temperature;BMP_pressure;BME280_temperature;BME280_humidity;BME280_pressure;Samples;Min_cycle;Max_cycle;Signal;HPM_P1;HPM_P2
2022/09/26 00:01:07;;;;;;;0.00;0.00;;;12.70;99.90;;;;;;4985938;28;20197;-76
2022/09/26 00:03:36;;;;;;;0.10;0.10;;;12.70;99.90;;;;;;4975598;28;20224;-75
2022/09/26 00:06:07;;;;;;;0.00;0.00;;;12.70;99.90;;;;;;4985577;28;20278;-75
2022/09/26 00:08:36;;;;;;;0.00;0.00;;;12.70;99.90;;;;;;4993618;28;20260;-75
2022/09/26 00:11:07;;;;;;;0.00;0.00;;;12.70;99.90;;;;;;4985398;28;20257;-75
2022/09/26 00:13:37;;;;;;;0.05;0.05;;;12.60;99.90;;;;;;4974147;28;20205;-75
2022/09/26 00:16:06;;;;;;;0.10;0.10;;;12.50;99.90;;;;;;4976574;28;20280;-75
2022/09/26 00:18:34;;;;;;;0.00;0.00;;;12.40;99.90;;;;;;4962116;28;20264;-75
2022/09/26 00:21:05;;;;;;;0.08;0.08;;;12.40;99.90;;;;;;4965050;28;20193;-75
2022/09/26 00:23:33;;;;;;;0.00;0.00;;;12.40;99.90;;;;;;4985692;28;20208;-75
2022/09/26 00:26:01;;;;;;;0.10;0.10;;;12.50;99.90;;;;;;4994764;28;20659;-75
2022/09/26 00:28:29;;;;;;;0.03;0.03;;;12.50;99.90;;;;;;4973371;28;20195;-75
2022/09/26 00:30:57;;;;;;;0.10;0.10;;;12.40;99.90;;;;;;4973388;28;20633;-75
2022/09/26 00:33:25;;;;;;;0.10;0.10;;;12.20;99.90;;;;;;4973753;28;20663;-75
2022/09/26 00:35:54;;;;;;;0.10;0.10;;;12.00;99.90;;;;;;4988472;28;20259;-76
2022/09/26 00:38:23;;;;;;;0.10;0.10;;;11.90;99.90;;;;;;4981309;28;20287;-76
2022/09/26 00:40:52;;;;;;;0.10;0.10;;;12.00;99.90;;;;;;4977343;28;20193;-75
2022/09/26 00:43:28;;;;;;;0.00;0.00;;;12.00;99.90;;;;;;4971234;28;20233;-75
2022/09/26 00:45:59;;;;;;;0.08;0.08;;;12.10;99.90;;;;;;4973561;28;20287;-75
2022/09/26 00:48:29;;;;;;;0.10;0.10;;;12.00;99.90;;;;;;4967135;28;20240;-76
2022/09/26 00:50:57;;;;;;;0.10;0.10;;;12.00;99.90;;;;;;4973200;28;20220;-76
2022/09/26 00:53:35;;;;;;;0.10;0.10;;;12.10;99.90;;;;;;4987832;28;20197;-76
2022/09/26 00:56:08;;;;;;;0.10;0.10;;;12.10;99.90;;;;;;4979524;28;20252;-75
2022/09/26 00:58:42;;;;;;;0.10;0.10;;;12.20;99.90;;;;;;4989584;28;20559;-74
2022/09/26 01:01:11;;;;;;;0.00;0.00;;;12.20;99.90;;;;;;4980353;28;20197;-74
2022/09/26 01:03:42;;;;;;;0.10;0.10;;;12.20;99.90;;;;;;4973513;28;20243;-75
2022/09/26 01:06:11;;;;;;;0.10;0.10;;;12.10;99.90;;;;;;4979017;28;20226;-75
2022/09/26 01:08:43;;;;;;;0.10;0.10;;;12.10;99.90;;;;;;4972630;28;20197;-75
2022/09/26 01:11:14;;;;;;;0.00;0.00;;;12.10;99.90;;;;;;4987708;28;20834;-75
2022/09/26 01:13:44;;;;;;;0.10;0.10;;;12.10;99.90;;;;;;4988156;28;20205;-75
2022/09/26 01:16:12;;;;;;;0.10;0.10;;;12.10;99.90;;;;;;4976000;28;20224;-75
2022/09/26 01:18:41;;;;;;;0.00;0.00;;;12.10;99.90;;;;;;4970547;28;20201;-75
2022/09/26 01:21:31;;;;;;;0.10;0.10;;;12.10;99.90;;;;;;4982148;28;20188;-75
2022/09/26 01:24:28;;;;;;;0.00;0.00;;;12.10;99.90;;;;;;4954347;29;20262;-75
2022/09/26 01:27:14;;;;;;;0.08;0.08;;;12.20;99.90;;;;;;4953031;28;20462;-75
2022/09/26 01:30:06;;;;;;;0.00;0.00;;;12.20;99.90;;;;;;4952834;29;20304;-76
2022/09/26 01:33:20;;;;;;;0.10;0.10;;;12.20;99.90;;;;;;4966136;28;20201;-76
2022/09/26 01:36:03;;;;;;;0.00;0.00;;;12.20;99.90;;;;;;4963277;28;20201;-75
2022/09/26 01:38:44;;;;;;;0.00;0.00;;;12.20;99.90;;;;;;4969223;28;20218;-75
2022/09/26 01:41:32;;;;;;;0.00;0.00;;;12.20;99.90;;;;;;4971257;28;20200;-75
2022/09/26 01:44:14;;;;;;;0.10;0.10;;;12.10;99.90;;;;;;4987682;28;20212;-75
2022/09/26 01:46:50;;;;;;;0.00;0.00;;;12.20;99.90;;;;;;4971168;28;20592;-75
2022/09/26 01:49:25;;;;;;;0.00;0.00;;;12.10;99.90;;;;;;4961778;28;20204;-75
2022/09/26 01:52:00;;;;;;;0.10;0.10;;;12.10;99.90;;;;;;4970562;28;20225;-75
2022/09/26 01:54:34;;;;;;;0.10;0.10;;;12.00;99.90;;;;;;4969236;28;20579;-75
2022/09/26 01:57:05;;;;;;;0.10;0.10;;;12.10;99.90;;;;;;4972606;28;20291;-75
2022/09/26 01:59:39;;;;;;;0.00;0.00;;;12.00;99.90;;;;;;4971004;28;20205;-75
2022/09/26 02:02:14;;;;;;;0.00;0.00;;;12.00;99.90;;;;;;4966258;28;20283;-74
2022/09/26 02:04:45;;;;;;;0.00;0.00;;;11.90;99.90;;;;;;4964348;28;20291;-75
2022/09/26 02:10:34;;;;;;;0.00;0.00;;;11.80;99.90;;;;;;4983599;28;20216;-75
2022/09/26 02:13:40;;;;;;;0.00;0.00;;;11.80;99.90;;;;;;4980830;28;20212;-73
2022/09/26 02:16:23;;;;;;;0.10;0.10;;;11.80;99.90;;;;;;4983327;28;20258;-74
2022/09/26 02:18:58;;;;;;;0.10;0.10;;;11.90;99.90;;;;;;4984717;28;20207;-74
2022/09/26 02:21:30;;;;;;;0.10;0.10;;;11.80;99.90;;;;;;4961289;28;20201;-74
2022/09/26 02:23:58;;;;;;;0.10;0.10;;;11.80;99.90;;;;;;4987264;28;20189;-76
2022/09/26 02:26:26;;;;;;;0.10;0.10;;;11.80;99.90;;;;;;4983044;28;20572;-76
2022/09/26 02:28:55;;;;;;;0.00;0.00;;;11.70;99.90;;;;;;4958635;28;20207;-75
2022/09/26 02:31:25;;;;;;;0.10;0.10;;;11.80;99.90;;;;;;4973963;28;20311;-76
2022/09/26 02:33:55;;;;;;;0.08;0.08;;;11.80;99.90;;;;;;4986477;28;20196;-75
2022/09/26 02:36:25;;;;;;;0.10;0.10;;;11.80;99.90;;;;;;4977938;28;20221;-75
2022/09/26 02:38:53;;;;;;;0.10;0.10;;;11.90;99.90;;;;;;4987320;28;20200;-74
2022/09/26 02:41:48;;;;;;;0.10;0.10;;;11.90;99.90;;;;;;5002710;28;20216;-76
2022/09/26 02:44:35;;;;;;;0.10;0.10;;;11.90;99.90;;;;;;4983668;28;20195;-74
2022/09/26 02:47:35;;;;;;;0.00;0.00;;;11.90;99.90;;;;;;4979703;28;20225;-74
2022/09/26 02:50:30;;;;;;;0.00;0.00;;;11.90;99.90;;;;;;4991001;28;20221;-75
2022/09/26 02:53:16;;;;;;;0.00;0.00;;;11.80;99.90;;;;;;4981288;28;20209;-75
2022/09/26 02:55:58;;;;;;;0.10;0.10;;;11.70;99.90;;;;;;4982683;28;20228;-74
2022/09/26 02:58:35;;;;;;;0.03;0.03;;;11.70;99.90;;;;;;4980158;28;20209;-75
2022/09/26 03:01:09;;;;;;;0.10;0.10;;;11.70;99.90;;;;;;4966392;28;20213;-75
2022/09/26 03:03:42;;;;;;;0.10;0.10;;;11.70;99.90;;;;;;4979561;28;20205;-75
2022/09/26 03:06:16;;;;;;;0.10;0.10;;;11.60;99.90;;;;;;4991663;28;20210;-76
2022/09/26 03:08:47;;;;;;;0.10;0.10;;;11.60;99.90;;;;;;5000813;28;20239;-75
2022/09/26 03:11:19;;;;;;;0.03;0.03;;;11.60;99.90;;;;;;4963661;28;20531;-76
2022/09/26 03:13:50;;;;;;;0.10;0.10;;;11.60;99.90;;;;;;4979697;28;20204;-75
2022/09/26 03:16:20;;;;;;;0.10;0.10;;;11.60;99.90;;;;;;4965736;28;20225;-75
2022/09/26 03:18:52;;;;;;;0.05;0.05;;;11.60;99.90;;;;;;4981268;28;20275;-75
2022/09/26 03:21:25;;;;;;;0.00;0.00;;;11.70;99.90;;;;;;4979967;28;20707;-76
2022/09/26 03:23:56;;;;;;;0.10;0.10;;;11.60;99.90;;;;;;4996154;28;20197;-74
2022/09/26 03:26:27;;;;;;;0.10;0.10;;;11.60;99.90;;;;;;4962895;28;20652;-76
2022/09/26 03:28:59;;;;;;;0.10;0.10;;;11.60;99.90;;;;;;4987739;28;20208;-76
2022/09/26 03:31:30;;;;;;;0.00;0.00;;;11.50;99.90;;;;;;4965042;28;20260;-77
2022/09/26 03:34:00;;;;;;;0.10;0.10;;;11.60;99.90;;;;;;4972407;28;20209;-76
2022/09/26 03:36:31;;;;;;;0.10;0.10;;;11.60;99.90;;;;;;4961024;29;20312;-76
2022/09/26 03:39:02;;;;;;;0.10;0.10;;;11.60;99.90;;;;;;4951362;28;20198;-76
2022/09/26 03:41:43;;;;;;;0.10;0.10;;;11.50;99.90;;;;;;4988202;28;20204;-76
2022/09/26 03:44:27;;;;;;;0.10;0.10;;;11.50;99.90;;;;;;4982970;28;20211;-76
2022/09/26 03:47:31;;;;;;;0.10;0.10;;;11.50;99.90;;;;;;4978794;28;20233;-76
2022/09/26 03:49:58;;;;;;;0.03;0.03;;;11.60;99.90;;;;;;4971846;28;20233;-76
2022/09/26 03:52:29;;;;;;;0.10;0.10;;;11.50;99.90;;;;;;4977548;28;20349;-75
2022/09/26 03:54:57;;;;;;;0.10;0.10;;;11.50;99.90;;;;;;4973656;28;20625;-74
2022/09/26 03:57:25;;;;;;;0.00;0.00;;;11.50;99.90;;;;;;4997863;28;20770;-74
2022/09/26 04:00:00;;;;;;;0.10;0.10;;;11.50;99.90;;;;;;4987970;28;20201;-75
2022/09/26 04:02:42;;;;;;;0.10;0.10;;;11.50;99.90;;;;;;4973584;29;20214;-76
2022/09/26 04:05:23;;;;;;;0.10;0.10;;;11.40;99.90;;;;;;4979137;28;20197;-75
2022/09/26 04:07:52;;;;;;;0.10;0.10;;;11.50;99.90;;;;;;5006730;28;20232;-76
2022/09/26 04:10:19;;;;;;;0.10;0.10;;;11.50;99.90;;;;;;4976265;28;20221;-76
2022/09/26 04:12:48;;;;;;;0.10;0.10;;;11.50;99.90;;;;;;4965093;28;20234;-75
2022/09/26 04:15:17;;;;;;;0.10;0.10;;;11.50;99.90;;;;;;4969001;28;20205;-76
2022/09/26 04:17:45;;;;;;;0.10;0.10;;;11.40;99.90;;;;;;4976533;28;20229;-76
2022/09/26 04:20:14;;;;;;;0.10;0.10;;;11.50;99.90;;;;;;4972307;28;20620;-77
2022/09/26 04:22:44;;;;;;;0.10;0.10;;;11.50;99.90;;;;;;4998824;28;20261;-76
2022/09/26 04:25:13;;;;;;;0.10;0.10;;;11.40;99.90;;;;;;4982396;28;20232;-76
2022/09/26 04:27:41;;;;;;;0.00;0.00;;;11.50;99.90;;;;;;4983395;28;20240;-76
2022/09/26 04:30:11;;;;;;;0.10;0.10;;;11.50;99.90;;;;;;4977987;28;20206;-75
2022/09/26 04:32:47;;;;;;;0.10;0.10;;;11.50;99.90;;;;;;4971431;28;20217;-76
2022/09/26 04:35:35;;;;;;;0.00;0.00;;;11.50;99.90;;;;;;4983001;28;20205;-77
2022/09/26 04:38:03;;;;;;;0.10;0.10;;;11.50;99.90;;;;;;4976957;28;20309;-76
2022/09/26 04:40:34;;;;;;;0.10;0.10;;;11.40;99.90;;;;;;4975259;28;20208;-76
2022/09/26 04:43:10;;;;;;;0.10;0.10;;;11.50;99.90;;;;;;4964853;29;20215;-76
2022/09/26 04:45:40;;;;;;;0.10;0.10;;;11.50;99.90;;;;;;4960744;29;20669;-77
2022/09/26 04:48:09;;;;;;;0.10;0.10;;;11.50;99.90;;;;;;4964238;28;20766;-75
2022/09/26 04:50:49;;;;;;;0.10;0.10;;;11.50;99.90;;;;;;4975779;28;20228;-76
2022/09/26 04:53:18;;;;;;;0.10;0.10;;;11.50;99.90;;;;;;4975103;28;20225;-76
2022/09/26 04:56:03;;;;;;;0.10;0.10;;;11.50;99.90;;;;;;4964906;28;20255;-77
2022/09/26 04:58:38;;;;;;;0.10;0.10;;;11.50;99.90;;;;;;5001714;28;20208;-77
2022/09/26 05:01:21;;;;;;;0.10;0.10;;;11.50;99.90;;;;;;4980930;28;20283;-77
2022/09/26 05:04:13;;;;;;;0.10;0.10;;;11.60;99.90;;;;;;4980517;28;20220;-77
2022/09/26 05:06:42;;;;;;;0.10;0.10;;;11.50;99.90;;;;;;4979700;28;20228;-76
2022/09/26 05:09:20;;;;;;;0.10;0.10;;;11.50;99.90;;;;;;4979761;28;20208;-77
2022/09/26 05:12:11;;;;;;;0.10;0.10;;;11.60;99.90;;;;;;4971410;28;20210;-77
2022/09/26 05:14:43;;;;;;;0.10;0.10;;;11.60;99.90;;;;;;4964683;29;20205;-76
2022/09/26 05:17:11;;;;;;;0.10;0.10;;;11.60;99.90;;;;;;4963355;28;20221;-77
2022/09/26 05:19:41;;;;;;;0.00;0.00;;;11.60;99.90;;;;;;4987038;28;20224;-76
2022/09/26 05:22:30;;;;;;;0.10;0.10;;;11.60;99.90;;;;;;4957380;28;20216;-76
2022/09/26 05:27:46;;;;;;;0.10;0.10;;;11.60;99.90;;;;;;4987975;28;20236;-76
2022/09/26 05:30:14;;;;;;;0.10;0.10;;;11.70;99.90;;;;;;4983217;28;20640;-77
2022/09/26 05:32:44;;;;;;;0.10;0.10;;;11.60;99.90;;;;;;4988291;28;20476;-77
2022/09/26 05:35:12;;;;;;;0.00;0.00;;;11.60;99.90;;;;;;4986389;28;20218;-77
2022/09/26 05:37:41;;;;;;;0.05;0.05;;;11.50;99.90;;;;;;4965805;28;20256;-77
2022/09/26 05:43:01;;;;;;;0.00;0.00;;;11.50;99.90;;;;;;4986256;28;20268;-77
2022/09/26 05:45:30;;;;;;;0.10;0.10;;;11.50;99.90;;;;;;4987873;28;20193;-77
2022/09/26 05:48:01;;;;;;;0.03;0.03;;;11.50;99.90;;;;;;4989425;28;20224;-77
2022/09/26 05:50:32;;;;;;;0.10;0.10;;;11.60;99.90;;;;;;4988909;28;20228;-76
2022/09/26 05:53:00;;;;;;;0.10;0.10;;;11.60;99.90;;;;;;4989420;28;20237;-77
2022/09/26 05:55:29;;;;;;;0.10;0.10;;;11.50;99.90;;;;;;4987885;28;20208;-77
2022/09/26 05:58:33;;;;;;;0.10;0.10;;;11.50;99.90;;;;;;4988510;28;20374;-77
2022/09/26 06:01:36;;;;;;;0.00;0.00;;;11.40;99.90;;;;;;4989708;28;20200;-77
2022/09/26 06:04:16;;;;;;;0.10;0.10;;;11.40;99.90;;;;;;4989441;28;20197;-77
2022/09/26 06:07:04;;;;;;;0.10;0.10;;;11.30;99.90;;;;;;4988587;28;20240;-76
2022/09/26 06:09:31;;;;;;;0.10;0.10;;;11.20;99.90;;;;;;4991019;28;20212;-77
2022/09/26 06:12:12;;;;;;;0.10;0.10;;;11.20;99.90;;;;;;4984295;28;20209;-77
2022/09/26 06:14:45;;;;;;;0.10;0.10;;;11.20;99.90;;;;;;4973736;29;20316;-77
2022/09/26 06:17:14;;;;;;;0.10;0.10;;;11.20;99.90;;;;;;4960588;29;20248;-76
2022/09/26 06:19:43;;;;;;;0.10;0.10;;;11.20;99.90;;;;;;4977733;28;20212;-79
2022/09/26 06:22:11;;;;;;;0.10;0.10;;;11.10;99.90;;;;;;4995290;28;20204;-77
2022/09/26 06:24:39;;;;;;;0.10;0.10;;;11.10;99.90;;;;;;4993904;28;20565;-78
2022/09/26 06:27:11;;;;;;;0.00;0.00;;;11.10;99.90;;;;;;4993391;28;20228;-78
2022/09/26 06:29:39;;;;;;;0.10;0.10;;;11.10;99.90;;;;;;4994601;28;20231;-77
2022/09/26 06:32:08;;;;;;;0.10;0.10;;;11.10;99.90;;;;;;4996893;28;20307;-78
2022/09/26 06:35:11;;;;;;;0.10;0.10;;;11.10;99.90;;;;;;5015108;28;20192;-77
2022/09/26 06:38:01;;;;;;;0.00;0.00;;;11.20;99.90;;;;;;4999737;28;20226;-76
2022/09/26 06:40:32;;;;;;;0.20;0.20;;;11.20;99.90;;;;;;4995982;28;20203;-78
2022/09/26 06:43:00;;;;;;;0.10;0.10;;;11.30;99.90;;;;;;4998418;28;20231;-77
2022/09/26 06:45:49;;;;;;;0.10;0.10;;;11.30;99.90;;;;;;5015592;28;20215;-77
2022/09/26 06:48:26;;;;;;;0.00;0.00;;;11.30;99.90;;;;;;4993109;28;20204;-78
2022/09/26 06:50:59;;;;;;;0.10;0.10;;;11.40;99.90;;;;;;5011594;28;20200;-78
2022/09/26 06:53:30;;;;;;;0.10;0.10;;;11.40;99.90;;;;;;4993620;28;20239;-77
2022/09/26 06:55:59;;;;;;;0.10;0.10;;;11.40;99.90;;;;;;4993191;28;20204;-78
2022/09/26 06:58:28;;;;;;;0.10;0.10;;;11.40;99.90;;;;;;4995209;28;20255;-78
2022/09/26 07:01:00;;;;;;;0.10;0.10;;;11.40;99.90;;;;;;4994318;28;20203;-77
2022/09/26 07:03:48;;;;;;;0.00;0.00;;;11.40;99.90;;;;;;5011562;28;20202;-77
2022/09/26 07:06:35;;;;;;;0.10;0.10;;;11.40;99.90;;;;;;5014594;28;20330;-78
2022/09/26 07:09:04;;;;;;;0.00;0.00;;;11.40;99.90;;;;;;4992130;28;20207;-78
2022/09/26 07:12:01;;;;;;;0.10;0.10;;;11.40;99.90;;;;;;5010882;28;20200;-78
2022/09/26 07:14:42;;;;;;;0.10;0.10;;;11.50;99.90;;;;;;4996775;28;20595;-78
2022/09/26 07:17:27;;;;;;;0.10;0.10;;;11.50;99.90;;;;;;4993711;28;20224;-77
2022/09/26 07:20:17;;;;;;;0.10;0.10;;;11.60;99.90;;;;;;5004307;28;20616;-78
2022/09/26 07:23:03;;;;;;;0.10;0.10;;;11.60;99.90;;;;;;4983923;28;20200;-77
2022/09/26 07:25:36;;;;;;;0.10;0.10;;;11.70;99.90;;;;;;4984441;28;20251;-77
2022/09/26 07:28:04;;;;;;;0.10;0.10;;;11.80;99.90;;;;;;5003425;28;20303;-77
2022/09/26 07:30:40;;;;;;;0.10;0.10;;;11.80;99.90;;;;;;4985517;28;20796;-77
2022/09/26 07:33:14;;;;;;;0.10;0.10;;;11.80;99.90;;;;;;4974063;28;20216;-76
2022/09/26 07:35:49;;;;;;;0.08;0.08;;;11.80;99.90;;;;;;4982122;28;20217;-76
2022/09/26 07:38:17;;;;;;;0.10;0.10;;;11.80;99.90;;;;;;4983090;28;20291;-76
2022/09/26 07:40:47;;;;;;;0.10;0.10;;;11.80;99.90;;;;;;4985218;28;20633;-75
2022/09/26 07:43:15;;;;;;;0.00;0.00;;;11.80;99.90;;;;;;4987867;28;20204;-76
2022/09/26 07:51:44;;;;;;;0.10;0.10;;;12.00;99.90;;;;;;5006460;28;20774;-76
2022/09/26 07:54:17;;;;;;;0.10;0.10;;;11.90;99.90;;;;;;4989096;28;20347;-76
2022/09/26 07:56:47;;;;;;;0.03;0.03;;;12.00;99.90;;;;;;5001223;28;20247;-78
2022/09/26 07:59:38;;;;;;;0.10;0.10;;;12.10;99.90;;;;;;5002875;28;20204;-77
2022/09/26 08:02:44;;;;;;;0.00;0.00;;;12.20;99.90;;;;;;5004060;28;20200;-77
2022/09/26 08:05:18;;;;;;;0.10;0.10;;;12.20;99.90;;;;;;4986903;28;20197;-77
2022/09/26 08:07:48;;;;;;;0.00;0.00;;;12.20;99.90;;;;;;5015814;23;20254;-76
2022/09/26 08:10:45;;;;;;;0.10;0.10;;;12.20;99.90;;;;;;4974996;28;20240;-77
2022/09/26 08:13:33;;;;;;;0.10;0.10;;;12.20;99.90;;;;;;4974729;28;20216;-76
2022/09/26 08:16:20;;;;;;;0.10;0.10;;;12.20;99.90;;;;;;4957596;28;20233;-76
2022/09/26 08:18:48;;;;;;;0.00;0.00;;;12.20;99.90;;;;;;4973228;28;20207;-76
2022/09/26 08:21:16;;;;;;;0.10;0.10;;;12.20;99.90;;;;;;4957858;28;20205;-75
2022/09/26 08:23:46;;;;;;;0.05;0.05;;;12.20;99.90;;;;;;4973411;28;20847;-76
2022/09/26 08:26:44;;;;;;;0.10;0.10;;;12.30;99.90;;;;;;4956786;28;20236;-76
2022/09/26 08:29:25;;;;;;;0.10;0.10;;;12.40;99.90;;;;;;4957009;28;20209;-77
2022/09/26 08:31:54;;;;;;;0.10;0.10;;;12.50;99.90;;;;;;4956888;28;20205;-76
2022/09/26 08:34:22;;;;;;;0.10;0.10;;;12.50;99.90;;;;;;4974631;28;20217;-75
2022/09/26 08:37:11;;;;;;;0.10;0.10;;;12.50;99.90;;;;;;4974992;28;20705;-75
2022/09/26 08:40:00;;;;;;;0.10;0.10;;;12.50;99.90;;;;;;4975737;28;20296;-75
2022/09/26 08:43:18;;;;;;;0.00;0.00;;;12.60;99.90;;;;;;4933889;29;20210;-76
2022/09/26 08:49:24;;;;;;;0.10;0.10;;;12.80;99.90;;;;;;4954257;28;20679;-76
2022/09/26 08:51:55;;;;;;;0.10;0.10;;;12.90;99.90;;;;;;4972346;28;20200;-76
2022/09/26 08:54:32;;;;;;;0.10;0.10;;;12.90;99.90;;;;;;4956431;28;20213;-75
2022/09/26 08:57:06;;;;;;;0.10;0.10;;;12.80;99.90;;;;;;4972314;28;20228;-76
2022/09/26 08:59:39;;;;;;;0.08;0.08;;;12.90;99.90;;;;;;4955820;28;20212;-75
2022/09/26 09:02:18;;;;;;;0.10;0.10;;;12.80;99.90;;;;;;4974275;28;20604;-75
2022/09/26 09:05:00;;;;;;;0.10;0.10;;;12.90;99.90;;;;;;4973175;28;20696;-75
2022/09/26 09:07:28;;;;;;;0.10;0.10;;;12.90;99.90;;;;;;4956155;28;20232;-75
2022/09/26 09:10:01;;;;;;;0.10;0.10;;;13.00;99.90;;;;;;4972393;28;20205;-75
2022/09/26 09:13:08;;;;;;;0.10;0.10;;;13.00;99.90;;;;;;4970559;28;20208;-76
2022/09/26 09:16:07;;;;;;;0.00;0.00;;;13.10;99.90;;;;;;4973340;28;20221;-76
2022/09/26 09:19:22;;;;;;;0.10;0.10;;;13.20;99.90;;;;;;4955559;28;20296;-76
2022/09/26 09:22:32;;;;;;;0.00;0.00;;;13.30;99.90;;;;;;4954053;29;20197;-75
2022/09/26 09:25:15;;;;;;;0.10;0.10;;;13.30;99.90;;;;;;4936511;29;20745;-76
2022/09/26 09:27:56;;;;;;;0.10;0.10;;;13.50;99.90;;;;;;4936517;29;20217;-76
2022/09/26 09:30:39;;;;;;;0.08;0.08;;;13.60;99.90;;;;;;4936599;29;20197;-76
2022/09/26 09:33:19;;;;;;;0.10;0.10;;;13.70;99.90;;;;;;4937445;29;20205;-76
2022/09/26 09:36:02;;;;;;;0.00;0.00;;;13.70;99.90;;;;;;4936480;29;20715;-77
2022/09/26 09:38:38;;;;;;;0.00;0.00;;;13.70;99.90;;;;;;4936846;29;20232;-76
2022/09/26 09:41:23;;;;;;;0.08;0.08;;;13.70;99.90;;;;;;4936521;29;20633;-76
2022/09/26 09:43:55;;;;;;;0.10;0.10;;;13.80;99.90;;;;;;4952911;28;20193;-76
2022/09/26 09:46:27;;;;;;;0.10;0.10;;;13.90;99.90;;;;;;4952994;29;20205;-76
2022/09/26 09:49:00;;;;;;;0.10;0.10;;;14.10;99.90;;;;;;4936256;29;20212;-76
2022/09/26 09:51:40;;;;;;;0.00;0.00;;;14.10;99.90;;;;;;4936114;29;20688;-76
2022/09/26 09:54:27;;;;;;;0.05;0.05;;;14.20;99.90;;;;;;4936539;29;20209;-76
2022/09/26 09:57:13;;;;;;;0.00;0.00;;;14.40;99.90;;;;;;4938429;29;20245;-76
2022/09/26 09:59:56;;;;;;;0.10;0.10;;;14.30;99.90;;;;;;4935889;29;20300;-76
2022/09/26 10:02:31;;;;;;;0.00;0.00;;;14.30;99.90;;;;;;4936491;29;20224;-75
2022/09/26 10:05:14;;;;;;;0.00;0.00;;;14.30;99.90;;;;;;4953201;29;20763;-76
2022/09/26 10:07:46;;;;;;;0.10;0.10;;;14.40;99.90;;;;;;4936310;29;20237;-76
2022/09/26 10:10:42;;;;;;;0.00;0.00;;;14.30;99.90;;;;;;4955035;29;20202;-76
2022/09/26 10:13:30;;;;;;;0.10;0.10;;;14.40;99.90;;;;;;4954024;29;20216;-76
2022/09/26 10:16:33;;;;;;;0.00;0.00;;;14.50;99.90;;;;;;4918022;29;20236;-76
2022/09/26 10:19:09;;;;;;;0.00;0.00;;;14.60;99.90;;;;;;4936584;29;20471;-75
2022/09/26 10:21:39;;;;;;;0.00;0.00;;;14.70;99.90;;;;;;4953518;29;20741;-75
2022/09/26 10:24:23;;;;;;;0.10;0.10;;;14.60;99.90;;;;;;4936865;29;20205;-76
2022/09/26 10:26:59;;;;;;;0.00;0.00;;;14.50;99.90;;;;;;4935233;29;20585;-75
2022/09/26 10:29:37;;;;;;;0.10;0.10;;;14.50;99.90;;;;;;4935673;29;20680;-75
2022/09/26 10:32:06;;;;;;;0.00;0.00;;;14.50;99.90;;;;;;4951845;29;20331;-75
2022/09/26 10:34:38;;;;;;;0.00;0.00;;;14.70;99.90;;;;;;4935948;29;20260;-76
2022/09/26 10:37:21;;;;;;;0.00;0.00;;;14.80;99.90;;;;;;4936133;29;20225;-76
2022/09/26 10:42:43;;;;;;;0.10;0.10;;;15.00;99.90;;;;;;4935786;29;20232;-76
2022/09/26 10:45:16;;;;;;;0.00;0.00;;;15.10;99.90;;;;;;4951631;29;20194;-76
2022/09/26 10:48:07;;;;;;;0.10;0.10;;;15.30;99.90;;;;;;4925688;29;20222;-76
2022/09/26 10:51:00;;;;;;;0.10;0.10;;;15.20;99.90;;;;;;4955439;28;20564;-76
2022/09/26 10:53:44;;;;;;;0.00;0.00;;;15.30;99.90;;;;;;4953611;28;20681;-76
2022/09/26 10:56:25;;;;;;;0.00;0.00;;;15.70;99.90;;;;;;4939433;29;20226;-76
2022/09/26 10:58:58;;;;;;;0.00;0.00;;;15.90;99.90;;;;;;4939199;29;20202;-76
2022/09/26 11:01:29;;;;;;;0.00;0.00;;;16.10;99.90;;;;;;4939266;29;20210;-76
2022/09/26 11:04:10;;;;;;;0.00;0.00;;;16.30;99.90;;;;;;4957391;29;20685;-76
2022/09/26 11:07:04;;;;;;;0.00;0.00;;;16.20;99.90;;;;;;4920049;29;20238;-76
2022/09/26 11:09:46;;;;;;;0.10;0.10;;;16.20;99.90;;;;;;4939706;29;20205;-75
2022/09/26 11:12:38;;;;;;;0.10;0.10;;;16.00;99.90;;;;;;4938954;29;20248;-76
2022/09/26 11:15:12;;;;;;;0.00;0.00;;;15.90;99.90;;;;;;4939397;29;20265;-76
2022/09/26 11:17:43;;;;;;;0.00;0.00;;;15.90;99.90;;;;;;4939570;29;20688;-76
2022/09/26 11:20:26;;;;;;;0.00;0.00;;;16.00;99.90;;;;;;4939716;29;20674;-76
2022/09/26 11:23:05;;;;;;;0.00;0.00;;;15.90;99.90;;;;;;4939555;29;20260;-76
2022/09/26 11:25:48;;;;;;;0.00;0.00;;;16.00;99.90;;;;;;4939320;29;20198;-76
2022/09/26 11:28:24;;;;;;;0.00;0.00;;;15.70;99.90;;;;;;4938929;29;20753;-76
2022/09/26 11:31:22;;;;;;;0.00;0.00;;;15.50;99.90;;;;;;4926356;29;20284;-76
2022/09/26 11:34:13;;;;;;;0.05;0.05;;;15.40;99.90;;;;;;4938620;29;20202;-76
2022/09/26 11:37:07;;;;;;;0.00;0.00;;;15.10;99.90;;;;;;4938929;29;20599;-77
2022/09/26 11:40:00;;;;;;;0.10;0.10;;;15.00;99.90;;;;;;4938669;29;20204;-77
2022/09/26 11:42:43;;;;;;;0.10;0.10;;;14.90;99.90;;;;;;4954683;29;20740;-76
2022/09/26 11:45:20;;;;;;;0.00;0.00;;;14.80;99.90;;;;;;4938783;29;20771;-76
2022/09/26 11:48:27;;;;;;;0.00;0.00;;;14.80;99.90;;;;;;4954959;29;20236;-77
2022/09/26 11:51:26;;;;;;;0.00;0.00;;;14.90;99.90;;;;;;4948606;28;20303;-78
2022/09/26 11:54:12;;;;;;;0.00;0.00;;;15.00;99.90;;;;;;4946705;29;20209;-76
2022/09/26 11:56:53;;;;;;;0.05;0.05;;;15.00;99.90;;;;;;4959984;28;20232;-76
2022/09/26 11:59:51;;;;;;;0.10;0.10;;;15.00;99.90;;;;;;4958289;28;20260;-77
2022/09/26 12:02:45;;;;;;;0.00;0.00;;;15.10;99.90;;;;;;4955360;29;20637;-77
2022/09/26 12:05:31;;;;;;;0.00;0.00;;;15.30;99.90;;;;;;4956009;28;20216;-76
2022/09/26 12:08:10;;;;;;;0.00;0.00;;;15.30;99.90;;;;;;4953919;29;20280;-77
2022/09/26 12:10:47;;;;;;;0.00;0.00;;;15.30;99.90;;;;;;4954019;29;20197;-76
2022/09/26 12:13:28;;;;;;;0.00;0.00;;;15.10;99.90;;;;;;4954516;29;20202;-76
2022/09/26 12:16:03;;;;;;;0.00;0.00;;;15.00;99.90;;;;;;4954426;29;20586;-76
2022/09/26 12:18:42;;;;;;;0.00;0.00;;;14.90;99.90;;;;;;4953687;29;20543;-76
2022/09/26 12:21:21;;;;;;;0.00;0.00;;;14.90;99.90;;;;;;4956342;29;20202;-76
2022/09/26 12:23:56;;;;;;;0.00;0.00;;;15.00;99.90;;;;;;4955432;29;20229;-76
2022/09/26 12:26:33;;;;;;;0.00;0.00;;;15.00;99.90;;;;;;4954539;29;20193;-77
2022/09/26 12:29:24;;;;;;;0.00;0.00;;;15.20;99.90;;;;;;4953830;29;20206;-77
2022/09/26 12:32:24;;;;;;;0.10;0.10;;;15.10;99.90;;;;;;4954503;29;20194;-76
2022/09/26 12:35:06;;;;;;;0.00;0.00;;;15.00;99.90;;;;;;4954591;29;20624;-77
2022/09/26 12:37:59;;;;;;;0.00;0.00;;;15.10;99.90;;;;;;4953107;29;20639;-76
2022/09/26 12:40:35;;;;;;;0.00;0.00;;;15.00;99.90;;;;;;4953567;29;20226;-76
2022/09/26 12:43:37;;;;;;;0.00;0.00;;;14.90;99.90;;;;;;4954674;29;20681;-77
2022/09/26 12:46:26;;;;;;;0.10;0.10;;;14.90;99.90;;;;;;4954343;29;20189;-77
2022/09/26 12:49:12;;;;;;;0.10;0.10;;;14.90;99.90;;;;;;4953203;29;20547;-76
2022/09/26 12:51:45;;;;;;;0.10;0.10;;;14.90;99.90;;;;;;4953616;29;20197;-77
2022/09/26 12:54:33;;;;;;;0.10;0.10;;;14.90;99.90;;;;;;4953855;29;20241;-77
2022/09/26 12:57:10;;;;;;;0.00;0.00;;;14.90;99.90;;;;;;4954841;29;20738;-77
2022/09/26 13:00:08;;;;;;;0.00;0.00;;;14.90;99.90;;;;;;4954522;29;20205;-77
2022/09/26 13:02:53;;;;;;;0.00;0.00;;;15.10;99.90;;;;;;4953959;29;20323;-77
2022/09/26 13:05:40;;;;;;;0.00;0.00;;;15.20;99.90;;;;;;4954512;29;20202;-77
2022/09/26 13:08:15;;;;;;;0.00;0.00;;;15.30;99.90;;;;;;4919827;29;1004606;-77
2022/09/26 13:10:57;;;;;;;0.03;0.03;;;15.30;99.90;;;;;;4955299;29;20205;-77
2022/09/26 13:13:45;;;;;;;0.00;0.00;;;15.20;99.90;;;;;;4956358;29;20244;-77
2022/09/26 13:16:24;;;;;;;0.00;0.00;;;15.20;99.90;;;;;;4955077;28;20272;-76
2022/09/26 13:19:00;;;;;;;0.00;0.00;;;15.20;99.90;;;;;;4962689;28;20313;-76
2022/09/26 13:21:43;;;;;;;0.00;0.00;;;15.30;99.90;;;;;;4954079;29;20202;-77
2022/09/26 13:24:17;;;;;;;0.00;0.00;;;15.30;99.90;;;;;;4954170;29;20236;-77
2022/09/26 13:26:51;;;;;;;0.00;0.00;;;15.30;99.90;;;;;;4956946;29;20704;-77
2022/09/26 13:29:24;;;;;;;0.00;0.00;;;15.40;99.90;;;;;;4953969;29;20205;-77
2022/09/26 13:32:00;;;;;;;0.00;0.00;;;15.30;99.90;;;;;;4953670;29;20193;-76
2022/09/26 13:34:36;;;;;;;0.00;0.00;;;15.20;99.90;;;;;;4953086;29;20562;-77
2022/09/26 13:37:08;;;;;;;0.00;0.00;;;15.20;99.90;;;;;;4953769;29;20252;-76
2022/09/26 13:39:46;;;;;;;0.10;0.10;;;15.10;99.90;;;;;;4966019;28;20251;-75
2022/09/26 13:42:20;;;;;;;0.08;0.08;;;15.10;99.90;;;;;;4973145;28;20205;-75
2022/09/26 13:44:57;;;;;;;0.00;0.00;;;15.10;99.90;;;;;;4972831;28;20193;-76
2022/09/26 13:47:34;;;;;;;0.00;0.00;;;15.10;99.90;;;;;;4972983;28;20271;-76
2022/09/26 13:50:18;;;;;;;0.10;0.10;;;15.10;99.90;;;;;;4972601;28;20263;-75
2022/09/26 13:52:55;;;;;;;0.00;0.00;;;14.90;99.90;;;;;;4973373;28;20209;-76
2022/09/26 13:55:24;;;;;;;0.10;0.10;;;15.00;99.90;;;;;;4972670;28;20228;-76
2022/09/26 13:58:05;;;;;;;0.00;0.00;;;15.00;99.90;;;;;;4972427;28;20249;-76
2022/09/26 14:00:55;;;;;;;0.00;0.00;;;15.00;99.90;;;;;;4972176;28;20250;-76
2022/09/26 14:03:38;;;;;;;0.00;0.00;;;14.90;99.90;;;;;;4972771;28;20216;-76
2022/09/26 14:06:29;;;;;;;0.05;0.05;;;14.90;99.90;;;;;;4972374;28;20197;-76